London City Airport

EGLC · Angleterre, Royaume-Uni

Valable de 17 juillet 2024 19:00 à 17 juillet 2024 22:00
Temps
mercredi
19:00
mercredi
20:00
mercredi
21:00
Code
VFR
VFR
VFR
Temps
Quelques nuages
Quelques nuages
Quelques nuages
Vue
10 km+
10 km+
10 km+
Base cloud
-
-
-
Vent
210°
210°
210°
210°
210°
210°
La vitesse
7 kt
7 kt
7 kt
Rafales
Temp/Sol
21:08

Original

TAF EGLC 171654Z 1718/1721 21007KT 9999 FEW040

TAF Aéroport de Londres City

Aéroport de Londres City es un aéroport de taille moyenne en Angleterre, Royaume-Uni. L'aéroport est situé à la latitude 51,50525 et à la longitude 0,05503. L'aéroport a une seule piste: 9/27. Le code OACI de l'aéroport est EGLC. Le code IATA de l'aéroport est LCY. L'aéroport se trouve dans le London FIR.

Cette observation météorologique pour l'aviation a été faite pour Aéroport de Londres City le 17 juillet 2024 17:54, heure locale. Valable de 17 juillet 2024 19:00 à 17 juillet 2024 22:00, heure locale.

Attentes

  • Entre mercredi 19:00 et 22:00

    • Vent: Le vent se déplace de la direction 210° à une vitesse de 7 kt.
    • Vue: 10 km ou plus
    • Des nuages: quelques nuages à 4.000 ft hauteur.

Période de lumière du jour

Aujourd'hui, le soleil se lève à 05:03 et se couche à 21:08. Cela s'applique à Aéroport de Londres City, la période universelle de lumière du jour peut être différente. La différence entre l'heure locale et UTC est +1 heures. L'heure d'été est actuellement en cours.

Signaler les modifications